logo
Search for airport 
image banner adimage banner adimage banner ad
image banner ad

YMLT - Launceston

Located in Launceston, Australia

ICAO - YMLT, IATA - LST

Data provided by Airmate  

General information

Coordinates: S41°32'43" E147°12'51"
Elevation is 562 feet MSL.
 
View others Airports in Tasmania

Operational data

Special qualification required
Current time UTC:
Current local time:
Weather
METAR: YMLT 131530Z AUTO 34007KT 9999 // NCD 10/10 Q1019 RF00.0/000.2
TAF: TAF AMD YMLT 131558Z 1315/1412 33006KT CAVOK FM132100 33008KT 9999 SCT015 FM140000 33012KT 9999 SCT040 FM141000 34008KT CAVOK PROB30 1316/1322 0300 FG
View NOTAMs / SUP AIP / TFR affecting this airport [VIEW]
Communications frequencies: [VIEW]

Runways:

RWY identifierQFULength (ft)Width (ft)SurfaceLDA (ft)
14R147°6499148ASP
32L327°6499148ASP

Airport contact information

Address: Launceston Australia

Other aviation service providers

Aviation club (not for profit)

Tasmanian Aero Club

Tasmanian Aero Club

Satellite view of YMLT